sensor_id;sensor_type;location;lat;lon;timestamp;pressure;altitude;pressure_sealevel;temperature;humidity
58471;BME280;44258;51.288;12.068;2023-02-20T00:00:35;101230.03;;;5.89;65.27
58471;BME280;44258;51.288;12.068;2023-02-20T00:03:04;101231.69;;;5.94;65.36
58471;BME280;44258;51.288;12.068;2023-02-20T00:05:31;101236.13;;;5.97;65.48
58471;BME280;44258;51.288;12.068;2023-02-20T00:07:57;101238.88;;;5.92;65.69
58471;BME280;44258;51.288;12.068;2023-02-20T00:10:24;101229.03;;;5.94;65.40
58471;BME280;44258;51.288;12.068;2023-02-20T00:12:51;101227.28;;;5.93;65.46
58471;BME280;44258;51.288;12.068;2023-02-20T00:15:19;101233.47;;;5.96;65.39
58471;BME280;44258;51.288;12.068;2023-02-20T00:17:47;101226.31;;;5.98;65.06
58471;BME280;44258;51.288;12.068;2023-02-20T00:20:16;101217.56;;;5.91;65.46
58471;BME280;44258;51.288;12.068;2023-02-20T00:22:43;101210.44;;;5.91;65.51
58471;BME280;44258;51.288;12.068;2023-02-20T00:25:09;101222.91;;;5.89;65.73
58471;BME280;44258;51.288;12.068;2023-02-20T00:27:36;101220.38;;;5.83;65.86
58471;BME280;44258;51.288;12.068;2023-02-20T00:30:03;101220.50;;;5.77;65.82
58471;BME280;44258;51.288;12.068;2023-02-20T00:32:30;101214.63;;;5.60;66.82
58471;BME280;44258;51.288;12.068;2023-02-20T00:34:57;101222.72;;;5.57;67.09
58471;BME280;44258;51.288;12.068;2023-02-20T00:37:25;101212.06;;;5.57;67.46
58471;BME280;44258;51.288;12.068;2023-02-20T00:39:51;101216.44;;;5.59;67.71
58471;BME280;44258;51.288;12.068;2023-02-20T00:42:18;101208.66;;;5.50;68.09
58471;BME280;44258;51.288;12.068;2023-02-20T00:44:44;101213.78;;;5.58;68.34
58471;BME280;44258;51.288;12.068;2023-02-20T00:47:11;101212.06;;;5.57;68.40
58471;BME280;44258;51.288;12.068;2023-02-20T00:49:38;101195.09;;;5.59;68.44
58471;BME280;44258;51.288;12.068;2023-02-20T00:52:05;101195.09;;;5.59;68.54
58471;BME280;44258;51.288;12.068;2023-02-20T00:54:33;101194.13;;;5.63;68.55
58471;BME280;44258;51.288;12.068;2023-02-20T00:57:00;101186.84;;;5.70;68.68
58471;BME280;44258;51.288;12.068;2023-02-20T00:59:26;101192.13;;;5.73;68.64
58471;BME280;44258;51.288;12.068;2023-02-20T01:01:53;101187.66;;;5.73;68.64
58471;BME280;44258;51.288;12.068;2023-02-20T01:04:19;101194.56;;;5.82;68.70
58471;BME280;44258;51.288;12.068;2023-02-20T01:06:46;101188.16;;;5.92;68.37
58471;BME280;44258;51.288;12.068;2023-02-20T01:09:12;101180.94;;;5.96;68.09
58471;BME280;44258;51.288;12.068;2023-02-20T01:11:42;101182.75;;;5.96;68.24
58471;BME280;44258;51.288;12.068;2023-02-20T01:14:08;101167.41;;;6.05;68.21
58471;BME280;44258;51.288;12.068;2023-02-20T01:16:35;101169.09;;;6.08;68.17
58471;BME280;44258;51.288;12.068;2023-02-20T01:19:02;101171.59;;;6.16;67.98
58471;BME280;44258;51.288;12.068;2023-02-20T01:21:28;101176.81;;;6.20;67.68
58471;BME280;44258;51.288;12.068;2023-02-20T01:23:55;101176.69;;;6.25;67.76
58471;BME280;44258;51.288;12.068;2023-02-20T01:26:21;101181.13;;;6.27;67.55
58471;BME280;44258;51.288;12.068;2023-02-20T01:28:49;101175.94;;;6.20;67.79
58471;BME280;44258;51.288;12.068;2023-02-20T01:31:16;101173.28;;;6.20;67.87
58471;BME280;44258;51.288;12.068;2023-02-20T01:33:42;101182.16;;;6.20;68.06
58471;BME280;44258;51.288;12.068;2023-02-20T01:36:09;101180.31;;;6.24;67.88
58471;BME280;44258;51.288;12.068;2023-02-20T01:38:36;101171.31;;;6.26;67.62
58471;BME280;44258;51.288;12.068;2023-02-20T01:41:04;101161.78;;;6.16;67.75
58471;BME280;44258;51.288;12.068;2023-02-20T01:43:31;101170.75;;;6.13;68.21
58471;BME280;44258;51.288;12.068;2023-02-20T01:49:02;101156.81;;;6.01;68.78
58471;BME280;44258;51.288;12.068;2023-02-20T01:51:33;101156.88;;;5.99;69.58
58471;BME280;44258;51.288;12.068;2023-02-20T01:54:01;101146.97;;;6.03;69.39
58471;BME280;44258;51.288;12.068;2023-02-20T01:56:28;101144.56;;;5.92;69.96
58471;BME280;44258;51.288;12.068;2023-02-20T01:58:55;101140.06;;;5.94;69.98
58471;BME280;44258;51.288;12.068;2023-02-20T02:01:21;101129.53;;;5.86;70.40
58471;BME280;44258;51.288;12.068;2023-02-20T02:03:50;101136.69;;;5.84;70.77
58471;BME280;44258;51.288;12.068;2023-02-20T02:06:22;101129.38;;;5.96;70.78
58471;BME280;44258;51.288;12.068;2023-02-20T02:08:51;101116.13;;;5.91;70.49
58471;BME280;44258;51.288;12.068;2023-02-20T02:11:19;101113.19;;;6.02;70.57
58471;BME280;44258;51.288;12.068;2023-02-20T02:13:48;101107.16;;;5.93;70.57
58471;BME280;44258;51.288;12.068;2023-02-20T02:16:20;101101.84;;;5.92;70.68
58471;BME280;44258;51.288;12.068;2023-02-20T02:18:59;101110.66;;;5.97;70.61
58471;BME280;44258;51.288;12.068;2023-02-20T02:22:02;101110.78;;;5.91;71.60
58471;BME280;44258;51.288;12.068;2023-02-20T02:25:03;101126.22;;;6.14;70.33
58471;BME280;44258;51.288;12.068;2023-02-20T02:27:52;101118.22;;;6.14;70.30
58471;BME280;44258;51.288;12.068;2023-02-20T02:30:51;101108.75;;;6.01;70.91
58471;BME280;44258;51.288;12.068;2023-02-20T02:33:46;101096.31;;;6.01;70.90
58471;BME280;44258;51.288;12.068;2023-02-20T02:39:21;101082.53;;;5.81;71.60
58471;BME280;44258;51.288;12.068;2023-02-20T02:41:53;101099.41;;;5.81;72.05
58471;BME280;44258;51.288;12.068;2023-02-20T02:44:27;101092.31;;;5.80;72.22
58471;BME280;44258;51.288;12.068;2023-02-20T02:46:58;101099.41;;;5.81;72.59
58471;BME280;44258;51.288;12.068;2023-02-20T02:49:30;101094.22;;;5.75;73.04
58471;BME280;44258;51.288;12.068;2023-02-20T02:52:02;101093.13;;;5.84;72.54
58471;BME280;44258;51.288;12.068;2023-02-20T02:54:29;101082.38;;;5.87;72.37
58471;BME280;44258;51.288;12.068;2023-02-20T02:57:18;101077.06;;;5.87;72.76
58471;BME280;44258;51.288;12.068;2023-02-20T02:59:46;101075.97;;;5.96;72.04
58471;BME280;44258;51.288;12.068;2023-02-20T03:02:16;101069.91;;;5.87;72.24
58471;BME280;44258;51.288;12.068;2023-02-20T03:04:46;101072.28;;;6.01;71.88
58471;BME280;44258;51.288;12.068;2023-02-20T03:07:16;101073.97;;;6.04;71.77
58471;BME280;44258;51.288;12.068;2023-02-20T03:09:46;101071.28;;;6.05;71.74
58471;BME280;44258;51.288;12.068;2023-02-20T03:12:15;101080.28;;;6.01;71.37
58471;BME280;44258;51.288;12.068;2023-02-20T03:14:46;101084.66;;;6.04;71.41
58471;BME280;44258;51.288;12.068;2023-02-20T03:17:37;101084.50;;;6.10;70.55
58471;BME280;44258;51.288;12.068;2023-02-20T03:20:07;101075.19;;;6.26;70.16
58471;BME280;44258;51.288;12.068;2023-02-20T03:22:38;101072.75;;;6.17;70.08
58471;BME280;44258;51.288;12.068;2023-02-20T03:25:09;101073.63;;;6.18;69.50
58471;BME280;44258;51.288;12.068;2023-02-20T03:27:40;101063.03;;;6.14;69.58
58471;BME280;44258;51.288;12.068;2023-02-20T03:30:11;101063.97;;;6.12;69.41
58471;BME280;44258;51.288;12.068;2023-02-20T03:32:41;101066.44;;;6.21;68.90
58471;BME280;44258;51.288;12.068;2023-02-20T03:35:29;101059.09;;;6.29;68.30
58471;BME280;44258;51.288;12.068;2023-02-20T03:38:17;101063.66;;;6.24;68.50
58471;BME280;44258;51.288;12.068;2023-02-20T03:41:04;101077.50;;;6.06;68.73
58471;BME280;44258;51.288;12.068;2023-02-20T03:43:50;101071.94;;;6.15;68.31
58471;BME280;44258;51.288;12.068;2023-02-20T03:46:20;101072.69;;;6.19;68.32
58471;BME280;44258;51.288;12.068;2023-02-20T03:48:50;101065.25;;;6.31;67.87
58471;BME280;44258;51.288;12.068;2023-02-20T03:51:18;101063.59;;;6.27;67.94
58471;BME280;44258;51.288;12.068;2023-02-20T03:53:46;101087.34;;;6.38;67.71
58471;BME280;44258;51.288;12.068;2023-02-20T03:56:15;101085.72;;;6.31;67.81
58471;BME280;44258;51.288;12.068;2023-02-20T03:58:47;101091.97;;;6.31;67.65
58471;BME280;44258;51.288;12.068;2023-02-20T04:01:16;101097.94;;;6.41;67.53
58471;BME280;44258;51.288;12.068;2023-02-20T04:03:47;101097.94;;;6.41;67.40
58471;BME280;44258;51.288;12.068;2023-02-20T04:06:16;101103.16;;;6.46;67.04
58471;BME280;44258;51.288;12.068;2023-02-20T04:08:49;101103.06;;;6.49;67.10
58471;BME280;44258;51.288;12.068;2023-02-20T04:11:20;101096.72;;;6.53;66.76
58471;BME280;44258;51.288;12.068;2023-02-20T04:13:50;101103.84;;;6.54;66.87
58471;BME280;44258;51.288;12.068;2023-02-20T04:16:19;101097.56;;;6.55;66.82
58471;BME280;44258;51.288;12.068;2023-02-20T04:18:46;101094.84;;;6.57;66.87
58471;BME280;44258;51.288;12.068;2023-02-20T04:21:18;101089.41;;;6.60;66.64
58471;BME280;44258;51.288;12.068;2023-02-20T04:23:51;101099.25;;;6.58;66.67
58471;BME280;44258;51.288;12.068;2023-02-20T04:26:22;101092.22;;;6.55;66.65
58471;BME280;44258;51.288;12.068;2023-02-20T04:28:49;101087.06;;;6.47;67.69
58471;BME280;44258;51.288;12.068;2023-02-20T04:31:17;101076.22;;;6.53;67.60
58471;BME280;44258;51.288;12.068;2023-02-20T04:33:44;101059.91;;;6.31;68.85
58471;BME280;44258;51.288;12.068;2023-02-20T04:36:11;101056.19;;;6.37;68.28
58471;BME280;44258;51.288;12.068;2023-02-20T04:38:37;101059.97;;;6.30;68.73
58471;BME280;44258;51.288;12.068;2023-02-20T04:41:05;101053.66;;;6.32;68.98
58471;BME280;44258;51.288;12.068;2023-02-20T04:43:32;101059.28;;;6.54;68.02
58471;BME280;44258;51.288;12.068;2023-02-20T04:45:59;101074.34;;;6.57;67.78
58471;BME280;44258;51.288;12.068;2023-02-20T04:48:25;101066.91;;;6.68;67.94
58471;BME280;44258;51.288;12.068;2023-02-20T04:50:52;101063.81;;;6.51;68.25
58471;BME280;44258;51.288;12.068;2023-02-20T04:53:18;101052.63;;;6.38;68.56
58471;BME280;44258;51.288;12.068;2023-02-20T04:55:45;101049.97;;;6.37;68.15
58471;BME280;44258;51.288;12.068;2023-02-20T04:58:13;101052.50;;;6.41;67.88
58471;BME280;44258;51.288;12.068;2023-02-20T05:00:39;101037.50;;;6.37;67.83
58471;BME280;44258;51.288;12.068;2023-02-20T05:03:06;101026.59;;;6.45;67.60
58471;BME280;44258;51.288;12.068;2023-02-20T05:05:32;101023.94;;;6.45;67.33
58471;BME280;44258;51.288;12.068;2023-02-20T05:08:02;101006.53;;;6.30;66.82
58471;BME280;44258;51.288;12.068;2023-02-20T05:10:30;101008.28;;;6.31;67.08
58471;BME280;44258;51.288;12.068;2023-02-20T05:12:57;101010.38;;;6.20;66.69
58471;BME280;44258;51.288;12.068;2023-02-20T05:15:25;100997.91;;;6.20;66.28
58471;BME280;44258;51.288;12.068;2023-02-20T05:17:52;101013.03;;;6.21;66.35
58471;BME280;44258;51.288;12.068;2023-02-20T05:20:19;101002.50;;;6.15;66.46
58471;BME280;44258;51.288;12.068;2023-02-20T05:23:06;100996.00;;;6.25;65.42
58471;BME280;44258;51.288;12.068;2023-02-20T05:25:31;101001.56;;;6.16;65.30
58471;BME280;44258;51.288;12.068;2023-02-20T05:27:58;101000.00;;;6.09;65.16
58471;BME280;44258;51.288;12.068;2023-02-20T05:30:26;100991.00;;;6.13;65.40
58471;BME280;44258;51.288;12.068;2023-02-20T05:32:52;100980.88;;;6.24;64.96
58471;BME280;44258;51.288;12.068;2023-02-20T05:35:18;100971.22;;;6.19;65.21
58471;BME280;44258;51.288;12.068;2023-02-20T05:37:45;100980.50;;;6.05;65.32
58471;BME280;44258;51.288;12.068;2023-02-20T05:40:12;100973.03;;;6.18;64.76
58471;BME280;44258;51.288;12.068;2023-02-20T05:42:40;100965.84;;;6.20;64.75
58471;BME280;44258;51.288;12.068;2023-02-20T05:45:07;100965.53;;;6.31;64.13
58471;BME280;44258;51.288;12.068;2023-02-20T05:47:36;100965.72;;;6.25;64.33
58471;BME280;44258;51.288;12.068;2023-02-20T05:50:03;100976.53;;;6.20;64.40
58471;BME280;44258;51.288;12.068;2023-02-20T05:52:30;100970.50;;;6.13;64.29
58471;BME280;44258;51.288;12.068;2023-02-20T05:54:57;100977.06;;;6.00;64.32
58471;BME280;44258;51.288;12.068;2023-02-20T05:57:23;100977.16;;;5.97;64.72
58471;BME280;44258;51.288;12.068;2023-02-20T05:59:50;100962.38;;;6.17;63.89
58471;BME280;44258;51.288;12.068;2023-02-20T06:02:16;100959.63;;;6.20;63.27
58471;BME280;44258;51.288;12.068;2023-02-20T06:04:44;100955.81;;;5.97;63.94
58471;BME280;44258;51.288;12.068;2023-02-20T06:07:10;100937.03;;;6.00;64.04
58471;BME280;44258;51.288;12.068;2023-02-20T06:09:40;100924.22;;;6.13;63.47
58471;BME280;44258;51.288;12.068;2023-02-20T06:12:07;100931.47;;;6.08;63.04
58471;BME280;44258;51.288;12.068;2023-02-20T06:14:34;100925.31;;;6.06;63.25
58471;BME280;44258;51.288;12.068;2023-02-20T06:17:00;100909.47;;;6.00;62.99
58471;BME280;44258;51.288;12.068;2023-02-20T06:19:27;100904.97;;;6.02;63.48
58471;BME280;44258;51.288;12.068;2023-02-20T06:21:55;100918.47;;;5.96;63.15
58471;BME280;44258;51.288;12.068;2023-02-20T06:24:23;100920.34;;;5.90;63.20
58471;BME280;44258;51.288;12.068;2023-02-20T06:26:49;100902.97;;;6.08;62.78
58471;BME280;44258;51.288;12.068;2023-02-20T06:29:16;100902.59;;;6.22;62.29
58471;BME280;44258;51.288;12.068;2023-02-20T06:31:43;100915.50;;;6.06;63.01
58471;BME280;44258;51.288;12.068;2023-02-20T06:34:10;100913.78;;;6.35;62.34
58471;BME280;44258;51.288;12.068;2023-02-20T06:36:39;100911.91;;;6.39;61.86
58471;BME280;44258;51.288;12.068;2023-02-20T06:39:08;100919.06;;;6.38;61.73
58471;BME280;44258;51.288;12.068;2023-02-20T06:41:35;100918.06;;;6.41;61.99
58471;BME280;44258;51.288;12.068;2023-02-20T06:44:02;100917.69;;;6.54;61.29
58471;BME280;44258;51.288;12.068;2023-02-20T06:46:29;100910.25;;;6.64;61.68
58471;BME280;44258;51.288;12.068;2023-02-20T06:48:57;100919.38;;;6.57;61.63
58471;BME280;44258;51.288;12.068;2023-02-20T06:51:25;100912.38;;;6.53;61.81
58471;BME280;44258;51.288;12.068;2023-02-20T06:53:52;100934.56;;;6.55;62.09
58471;BME280;44258;51.288;12.068;2023-02-20T06:56:23;100925.19;;;6.42;62.66
58471;BME280;44258;51.288;12.068;2023-02-20T06:58:51;100916.88;;;6.51;62.17
58471;BME280;44258;51.288;12.068;2023-02-20T07:01:19;100910.53;;;6.55;62.06
58471;BME280;44258;51.288;12.068;2023-02-20T07:03:46;100899.94;;;6.52;61.82
58471;BME280;44258;51.288;12.068;2023-02-20T07:06:14;100901.16;;;6.42;61.97
58471;BME280;44258;51.288;12.068;2023-02-20T07:08:41;100902.81;;;6.46;62.02
58471;BME280;44258;51.288;12.068;2023-02-20T07:11:07;100895.19;;;6.32;62.30
58471;BME280;44258;51.288;12.068;2023-02-20T07:13:35;100886.97;;;6.40;62.39
58471;BME280;44258;51.288;12.068;2023-02-20T07:16:02;100879.59;;;6.48;62.00
58471;BME280;44258;51.288;12.068;2023-02-20T07:18:28;100879.81;;;6.40;62.17
58471;BME280;44258;51.288;12.068;2023-02-20T07:20:55;100895.69;;;6.45;62.24
58471;BME280;44258;51.288;12.068;2023-02-20T07:23:22;100868.91;;;6.48;61.75
58471;BME280;44258;51.288;12.068;2023-02-20T07:25:49;100884.97;;;6.46;62.46
58471;BME280;44258;51.288;12.068;2023-02-20T07:28:15;100883.53;;;6.64;61.74
58471;BME280;44258;51.288;12.068;2023-02-20T07:30:45;100891.84;;;6.53;61.85
58471;BME280;44258;51.288;12.068;2023-02-20T07:33:13;100883.84;;;6.53;62.31
58471;BME280;44258;51.288;12.068;2023-02-20T07:35:43;100887.97;;;6.64;62.10
58471;BME280;44258;51.288;12.068;2023-02-20T07:38:10;100895.06;;;6.66;61.87
58471;BME280;44258;51.288;12.068;2023-02-20T07:40:36;100882.53;;;6.68;62.16
58471;BME280;44258;51.288;12.068;2023-02-20T07:43:03;100879.34;;;6.84;61.96
58471;BME280;44258;51.288;12.068;2023-02-20T07:45:29;100880.25;;;6.84;61.52
58471;BME280;44258;51.288;12.068;2023-02-20T07:47:57;100871.00;;;6.94;61.37
58471;BME280;44258;51.288;12.068;2023-02-20T07:50:24;100870.06;;;6.96;61.24
58471;BME280;44258;51.288;12.068;2023-02-20T07:52:50;100874.38;;;7.00;61.27
58471;BME280;44258;51.288;12.068;2023-02-20T07:55:17;100866.16;;;7.06;61.31
58471;BME280;44258;51.288;12.068;2023-02-20T07:57:46;100854.06;;;6.94;61.48
58471;BME280;44258;51.288;12.068;2023-02-20T08:00:14;100834.31;;;6.98;61.30
58471;BME280;44258;51.288;12.068;2023-02-20T08:02:41;100831.66;;;6.98;61.39
58471;BME280;44258;51.288;12.068;2023-02-20T08:05:09;100822.59;;;7.02;61.32
58471;BME280;44258;51.288;12.068;2023-02-20T08:07:35;100837.97;;;6.96;61.49
58471;BME280;44258;51.288;12.068;2023-02-20T08:10:02;100825.97;;;7.09;60.84
58471;BME280;44258;51.288;12.068;2023-02-20T08:12:29;100817.97;;;7.07;61.08
58471;BME280;44258;51.288;12.068;2023-02-20T08:14:56;100822.91;;;7.20;61.23
58471;BME280;44258;51.288;12.068;2023-02-20T08:17:22;100810.91;;;7.31;60.48
58471;BME280;44258;51.288;12.068;2023-02-20T08:19:48;100825.06;;;7.08;61.09
58471;BME280;44258;51.288;12.068;2023-02-20T08:22:16;100837.09;;;7.22;61.22
58471;BME280;44258;51.288;12.068;2023-02-20T08:24:43;100832.59;;;7.24;60.86
58471;BME280;44258;51.288;12.068;2023-02-20T08:27:10;100822.50;;;7.32;60.82
58471;BME280;44258;51.288;12.068;2023-02-20T08:29:37;100811.63;;;7.37;60.61
58471;BME280;44258;51.288;12.068;2023-02-20T08:32:03;100814.84;;;7.46;60.33
58471;BME280;44258;51.288;12.068;2023-02-20T08:34:31;100820.16;;;7.48;60.54
58471;BME280;44258;51.288;12.068;2023-02-20T08:36:57;100812.09;;;7.49;60.49
58471;BME280;44258;51.288;12.068;2023-02-20T08:39:25;100803.84;;;7.56;60.23
58471;BME280;44258;51.288;12.068;2023-02-20T08:41:52;100800.56;;;7.47;59.94
58471;BME280;44258;51.288;12.068;2023-02-20T08:44:19;100795.13;;;7.74;59.70
58471;BME280;44258;51.288;12.068;2023-02-20T08:46:46;100785.97;;;7.56;59.65
58471;BME280;44258;51.288;12.068;2023-02-20T08:49:12;100792.31;;;7.77;59.61
58471;BME280;44258;51.288;12.068;2023-02-20T08:51:41;100787.84;;;7.78;59.54
58471;BME280;44258;51.288;12.068;2023-02-20T08:54:07;100792.63;;;7.44;60.16
58471;BME280;44258;51.288;12.068;2023-02-20T08:56:37;100799.41;;;7.54;60.05
58471;BME280;44258;51.288;12.068;2023-02-20T08:59:04;100792.03;;;7.86;59.19
58471;BME280;44258;51.288;12.068;2023-02-20T09:01:30;100809.13;;;7.82;59.46
58471;BME280;44258;51.288;12.068;2023-02-20T09:03:57;100809.81;;;7.87;59.05
58471;BME280;44258;51.288;12.068;2023-02-20T09:06:23;100807.41;;;8.05;58.48
58471;BME280;44258;51.288;12.068;2023-02-20T09:08:50;100798.53;;;8.03;58.24
58471;BME280;44258;51.288;12.068;2023-02-20T09:11:16;100798.84;;;8.19;57.72
58471;BME280;44258;51.288;12.068;2023-02-20T09:13:45;100781.13;;;8.14;57.77
58471;BME280;44258;51.288;12.068;2023-02-20T09:16:14;100779.84;;;8.25;57.45
58471;BME280;44258;51.288;12.068;2023-02-20T09:18:43;100776.59;;;8.17;56.89
58471;BME280;44258;51.288;12.068;2023-02-20T09:21:10;100778.03;;;8.02;57.26
58471;BME280;44258;51.288;12.068;2023-02-20T09:23:38;100773.72;;;7.98;58.29
58471;BME280;44258;51.288;12.068;2023-02-20T09:26:05;100783.00;;;8.12;57.79
58471;BME280;44258;51.288;12.068;2023-02-20T09:28:31;100780.66;;;8.27;57.02
58471;BME280;44258;51.288;12.068;2023-02-20T09:30:59;100778.31;;;8.41;57.08
58471;BME280;44258;51.288;12.068;2023-02-20T09:33:27;100771.88;;;8.45;56.82
58471;BME280;44258;51.288;12.068;2023-02-20T09:35:54;100779.66;;;8.51;56.15
58471;BME280;44258;51.288;12.068;2023-02-20T09:38:21;100784.75;;;8.36;56.06
58471;BME280;44258;51.288;12.068;2023-02-20T09:40:53;100776.03;;;8.30;56.58
58471;BME280;44258;51.288;12.068;2023-02-20T09:43:28;100761.00;;;8.26;56.70
58471;BME280;44258;51.288;12.068;2023-02-20T09:46:00;100776.91;;;8.53;56.04
58471;BME280;44258;51.288;12.068;2023-02-20T09:48:42;100777.53;;;8.38;56.03
58471;BME280;44258;51.288;12.068;2023-02-20T09:51:14;100777.41;;;8.63;56.17
58471;BME280;44258;51.288;12.068;2023-02-20T09:53:50;100777.09;;;8.70;55.51
58471;BME280;44258;51.288;12.068;2023-02-20T09:56:21;100771.69;;;8.72;54.85
58471;BME280;44258;51.288;12.068;2023-02-20T09:58:56;100775.19;;;8.74;55.62
58471;BME280;44258;51.288;12.068;2023-02-20T10:01:27;100772.50;;;8.74;55.28
58471;BME280;44258;51.288;12.068;2023-02-20T10:03:56;100770.66;;;8.97;55.31
58471;BME280;44258;51.288;12.068;2023-02-20T10:06:25;100780.31;;;9.21;55.11
58471;BME280;44258;51.288;12.068;2023-02-20T10:08:52;100783.28;;;9.15;55.17
58471;BME280;44258;51.288;12.068;2023-02-20T10:11:27;100772.88;;;9.07;54.99
58471;BME280;44258;51.288;12.068;2023-02-20T10:14:11;100764.06;;;9.24;54.96
58471;BME280;44258;51.288;12.068;2023-02-20T10:16:44;100768.38;;;9.28;54.90
58471;BME280;44258;51.288;12.068;2023-02-20T10:19:19;100756.09;;;9.45;54.22
58471;BME280;44258;51.288;12.068;2023-02-20T10:21:55;100756.19;;;9.21;53.47
58471;BME280;44258;51.288;12.068;2023-02-20T10:24:32;100760.72;;;9.41;53.89
58471;BME280;44258;51.288;12.068;2023-02-20T10:27:15;100733.94;;;9.38;53.87
58471;BME280;44258;51.288;12.068;2023-02-20T10:29:44;100738.22;;;9.44;54.24
58471;BME280;44258;51.288;12.068;2023-02-20T10:32:15;100720.50;;;9.40;54.49
58471;BME280;44258;51.288;12.068;2023-02-20T10:34:50;100711.16;;;9.48;53.82
58471;BME280;44258;51.288;12.068;2023-02-20T10:37:23;100699.50;;;9.49;53.72
58471;BME280;44258;51.288;12.068;2023-02-20T10:39:55;100696.47;;;9.57;53.99
58471;BME280;44258;51.288;12.068;2023-02-20T10:42:29;100680.69;;;9.49;54.14
58471;BME280;44258;51.288;12.068;2023-02-20T10:45:00;100677.16;;;9.49;53.90
58471;BME280;44258;51.288;12.068;2023-02-20T10:47:33;100658.88;;;9.57;53.90
58471;BME280;44258;51.288;12.068;2023-02-20T10:50:08;100668.44;;;9.44;54.25
58471;BME280;44258;51.288;12.068;2023-02-20T10:52:41;100664.09;;;9.60;53.74
58471;BME280;44258;51.288;12.068;2023-02-20T10:55:16;100647.78;;;9.84;53.46
58471;BME280;44258;51.288;12.068;2023-02-20T10:57:47;100671.72;;;9.69;52.81
58471;BME280;44258;51.288;12.068;2023-02-20T11:00:16;100652.69;;;9.74;54.07
58471;BME280;44258;51.288;12.068;2023-02-20T11:02:51;100654.50;;;9.92;53.46
58471;BME280;44258;51.288;12.068;2023-02-20T11:05:23;100656.97;;;9.97;53.25
58471;BME280;44258;51.288;12.068;2023-02-20T11:07:51;100649.03;;;10.13;53.11
58471;BME280;44258;51.288;12.068;2023-02-20T11:10:18;100648.69;;;10.02;52.86
58471;BME280;44258;51.288;12.068;2023-02-20T11:12:47;100647.19;;;10.13;52.76
58471;BME280;44258;51.288;12.068;2023-02-20T11:15:18;100645.28;;;9.98;53.44
58471;BME280;44258;51.288;12.068;2023-02-20T11:17:51;100628.97;;;10.20;53.27
58471;BME280;44258;51.288;12.068;2023-02-20T11:20:40;100631.25;;;9.91;52.62
58471;BME280;44258;51.288;12.068;2023-02-20T11:23:06;100623.66;;;10.19;52.65
58471;BME280;44258;51.288;12.068;2023-02-20T11:25:35;100607.31;;;10.06;52.94
58471;BME280;44258;51.288;12.068;2023-02-20T11:28:08;100599.75;;;9.95;52.33
58471;BME280;44258;51.288;12.068;2023-02-20T11:30:37;100592.84;;;10.08;52.20
58471;BME280;44258;51.288;12.068;2023-02-20T11:33:10;100585.53;;;9.93;52.56
58471;BME280;44258;51.288;12.068;2023-02-20T11:35:39;100583.06;;;10.25;52.16
58471;BME280;44258;51.288;12.068;2023-02-20T11:38:26;100571.34;;;10.26;52.06
58471;BME280;44258;51.288;12.068;2023-02-20T11:44:16;100559.16;;;10.36;51.48
58471;BME280;44258;51.288;12.068;2023-02-20T11:46:44;100551.81;;;10.57;51.72
58471;BME280;44258;51.288;12.068;2023-02-20T11:49:22;100566.59;;;10.48;51.63
58471;BME280;44258;51.288;12.068;2023-02-20T11:51:50;100559.78;;;10.59;52.24
58471;BME280;44258;51.288;12.068;2023-02-20T11:54:19;100554.31;;;10.60;52.04
58471;BME280;44258;51.288;12.068;2023-02-20T11:56:54;100547.38;;;10.73;51.38
58471;BME280;44258;51.288;12.068;2023-02-20T11:59:30;100543.09;;;10.69;51.15
58471;BME280;44258;51.288;12.068;2023-02-20T12:02:24;100533.84;;;10.75;50.86
58471;BME280;44258;51.288;12.068;2023-02-20T12:05:17;100539.44;;;10.88;50.95
58471;BME280;44258;51.288;12.068;2023-02-20T12:07:52;100542.13;;;10.88;50.79
58471;BME280;44258;51.288;12.068;2023-02-20T12:10:32;100533.06;;;11.06;50.93
58471;BME280;44258;51.288;12.068;2023-02-20T12:13:04;100532.78;;;10.95;51.00
58471;BME280;44258;51.288;12.068;2023-02-20T12:15:32;100550.41;;;11.01;51.14
58471;BME280;44258;51.288;12.068;2023-02-20T12:18:32;100549.22;;;11.06;50.24
58471;BME280;44258;51.288;12.068;2023-02-20T12:21:14;100532.44;;;11.01;50.77
58471;BME280;44258;51.288;12.068;2023-02-20T12:23:49;100526.91;;;11.04;50.52
58471;BME280;44258;51.288;12.068;2023-02-20T12:26:31;100535.66;;;11.24;50.66
58471;BME280;44258;51.288;12.068;2023-02-20T12:29:08;100531.25;;;11.23;51.15
58471;BME280;44258;51.288;12.068;2023-02-20T12:31:46;100506.31;;;11.19;51.21
58471;BME280;44258;51.288;12.068;2023-02-20T12:34:37;100509.22;;;11.16;51.41
58471;BME280;44258;51.288;12.068;2023-02-20T12:37:13;100508.50;;;11.12;51.60
58471;BME280;44258;51.288;12.068;2023-02-20T12:39:43;100511.69;;;11.03;51.82
58471;BME280;44258;51.288;12.068;2023-02-20T12:42:26;100495.31;;;11.08;52.02
58471;BME280;44258;51.288;12.068;2023-02-20T12:45:15;100499.91;;;11.06;52.39
58471;BME280;44258;51.288;12.068;2023-02-20T12:47:44;100502.59;;;11.22;52.74
58471;BME280;44258;51.288;12.068;2023-02-20T12:50:39;100504.84;;;11.29;52.59
58471;BME280;44258;51.288;12.068;2023-02-20T12:53:37;100498.00;;;11.40;52.59
58471;BME280;44258;51.288;12.068;2023-02-20T12:56:18;100494.09;;;11.45;52.59
58471;BME280;44258;51.288;12.068;2023-02-20T12:58:53;100493.72;;;11.51;52.35
58471;BME280;44258;51.288;12.068;2023-02-20T13:01:23;100495.28;;;11.55;52.42
58471;BME280;44258;51.288;12.068;2023-02-20T13:03:58;100498.41;;;11.48;53.84
58471;BME280;44258;51.288;12.068;2023-02-20T13:06:32;100509.03;;;11.67;53.18
58471;BME280;44258;51.288;12.068;2023-02-20T13:09:05;100491.59;;;11.72;53.20
58471;BME280;44258;51.288;12.068;2023-02-20T13:11:41;100508.06;;;11.68;52.94
58471;BME280;44258;51.288;12.068;2023-02-20T13:14:21;100494.66;;;11.66;52.54